Time;durP1;ratioP1;P1;durP2;ratioP2;P2;SDS_P1;SDS_P2;PMS_P1;PMS_P2;Temp;Humidity;BMP_temperature;BMP_pressure;BME280_temperature;BME280_humidity;BME280_pressure;Samples;Min_cycle;Max_cycle;Signal;HPM_P1;HPM_P2
2022/12/20 00:02:14;;;;;;;8.07;4.30;;;8.90;99.90;;;;;;4967883;28;20053;-66
2022/12/20 00:04:39;;;;;;;6.72;4.65;;;9.00;99.90;;;;;;4973153;28;20077;-67
2022/12/20 00:07:05;;;;;;;6.80;5.20;;;9.00;99.90;;;;;;4973283;28;20051;-63
2022/12/20 00:09:31;;;;;;;9.40;5.30;;;9.10;99.90;;;;;;4968052;28;20454;-66
2022/12/20 00:11:56;;;;;;;6.70;4.28;;;9.00;99.90;;;;;;4967245;28;20528;-66
2022/12/20 00:14:22;;;;;;;6.93;4.75;;;9.00;99.90;;;;;;4967852;28;20398;-66
2022/12/20 00:16:48;;;;;;;6.72;4.55;;;9.10;99.90;;;;;;4950402;28;20125;-65
2022/12/20 00:19:13;;;;;;;6.47;4.70;;;8.90;99.90;;;;;;4967375;28;20059;-66
2022/12/20 00:21:39;;;;;;;7.03;4.78;;;8.90;99.90;;;;;;4968587;28;20757;-66
2022/12/20 00:24:05;;;;;;;6.53;4.22;;;8.80;99.90;;;;;;4967906;28;20540;-64
2022/12/20 00:26:33;;;;;;;7.90;4.47;;;8.80;99.90;;;;;;4967421;28;20130;-66
2022/12/20 00:28:59;;;;;;;8.13;5.18;;;8.80;99.90;;;;;;4967398;28;20478;-66
2022/12/20 00:31:27;;;;;;;6.03;4.30;;;8.90;99.90;;;;;;4967847;28;20083;-66
2022/12/20 00:33:54;;;;;;;6.30;3.83;;;8.90;99.90;;;;;;4969297;28;20745;-66
2022/12/20 00:36:22;;;;;;;7.90;4.65;;;8.80;99.90;;;;;;4970985;28;20090;-66
2022/12/20 00:38:50;;;;;;;6.88;5.40;;;8.70;99.90;;;;;;4971634;28;20043;-66
2022/12/20 00:41:19;;;;;;;7.55;5.05;;;8.70;99.90;;;;;;4970731;28;20101;-65
2022/12/20 00:43:45;;;;;;;6.57;4.95;;;8.60;99.90;;;;;;4970605;28;20049;-65
2022/12/20 00:46:12;;;;;;;5.88;3.63;;;8.70;99.90;;;;;;4971150;28;20506;-65
2022/12/20 00:48:38;;;;;;;6.75;5.05;;;8.90;99.90;;;;;;4970121;28;20054;-66
2022/12/20 00:51:10;;;;;;;7.13;4.82;;;8.70;99.90;;;;;;4971494;28;20524;-65
2022/12/20 00:53:37;;;;;;;8.15;4.90;;;8.70;99.90;;;;;;4971379;28;20046;-66
2022/12/20 00:56:03;;;;;;;7.60;4.97;;;8.70;99.90;;;;;;4970668;28;20042;-66
2022/12/20 00:58:31;;;;;;;5.85;4.25;;;8.80;99.90;;;;;;4971323;28;20043;-65
2022/12/20 01:00:57;;;;;;;6.95;3.67;;;8.80;99.90;;;;;;4971022;28;20054;-64
2022/12/20 01:03:23;;;;;;;16.73;4.40;;;8.90;99.90;;;;;;4969634;28;20488;-65
2022/12/20 01:05:52;;;;;;;5.93;4.32;;;9.00;99.90;;;;;;4981577;28;20047;-66
2022/12/20 01:08:18;;;;;;;5.72;4.10;;;9.00;99.90;;;;;;4971410;28;20089;-66
2022/12/20 01:10:43;;;;;;;7.28;3.92;;;8.90;99.90;;;;;;4970331;28;20415;-66
2022/12/20 01:13:09;;;;;;;8.02;4.28;;;9.10;99.90;;;;;;4970761;28;20098;-66
2022/12/20 01:15:35;;;;;;;7.60;4.20;;;9.10;99.90;;;;;;4970367;28;20047;-66
2022/12/20 01:18:01;;;;;;;7.20;4.45;;;9.10;99.90;;;;;;4969638;28;20065;-66
2022/12/20 01:20:26;;;;;;;6.18;4.43;;;9.10;99.90;;;;;;4970568;28;20070;-65
2022/12/20 01:22:52;;;;;;;7.80;4.60;;;9.00;99.90;;;;;;4970345;28;20135;-67
2022/12/20 01:25:18;;;;;;;6.63;3.95;;;9.20;99.90;;;;;;4970679;28;20078;-64
2022/12/20 01:27:43;;;;;;;5.60;3.97;;;9.20;99.90;;;;;;4970408;28;20042;-64
2022/12/20 01:30:10;;;;;;;5.90;3.63;;;9.10;99.90;;;;;;4970772;28;20050;-65
2022/12/20 01:32:35;;;;;;;6.72;4.35;;;9.20;99.90;;;;;;4970728;28;20038;-66
2022/12/20 01:35:01;;;;;;;5.32;3.90;;;9.20;99.90;;;;;;4970725;28;20069;-66
2022/12/20 01:37:27;;;;;;;6.10;3.75;;;9.30;99.90;;;;;;4970557;28;20102;-66
2022/12/20 01:39:53;;;;;;;7.65;3.67;;;9.00;99.90;;;;;;4970199;28;20430;-66
2022/12/20 01:42:19;;;;;;;9.02;4.47;;;9.10;99.90;;;;;;4969899;28;20089;-66
2022/12/20 01:44:44;;;;;;;7.30;3.95;;;9.10;99.90;;;;;;4970721;28;20039;-65
2022/12/20 01:47:12;;;;;;;5.82;3.58;;;9.20;99.90;;;;;;4968626;28;20082;-66
2022/12/20 01:50:11;;;;;;;5.43;3.67;;;9.10;99.90;;;;;;4376346;23;21893;-64
2022/12/20 01:52:41;;;;;;;6.47;3.83;;;9.20;99.90;;;;;;4998062;28;20058;-67
2022/12/20 01:55:18;;;;;;;6.75;4.43;;;9.20;99.90;;;;;;4988751;28;20464;-66
2022/12/20 01:57:53;;;;;;;8.23;3.95;;;9.10;99.90;;;;;;4989556;28;20061;-66
2022/12/20 02:00:19;;;;;;;7.18;4.30;;;9.30;99.90;;;;;;4990046;28;20058;-66
2022/12/20 02:02:48;;;;;;;5.80;3.28;;;9.20;99.90;;;;;;5006327;28;20092;-66
2022/12/20 02:05:16;;;;;;;8.00;4.40;;;9.20;99.90;;;;;;4998722;28;20054;-66
2022/12/20 02:07:44;;;;;;;5.45;3.80;;;9.10;99.90;;;;;;4987223;28;20069;-66
2022/12/20 02:10:11;;;;;;;5.40;3.92;;;9.00;99.90;;;;;;4986378;28;20124;-66
2022/12/20 02:12:43;;;;;;;6.38;3.60;;;9.10;99.90;;;;;;4986437;28;20161;-66
2022/12/20 02:15:31;;;;;;;6.57;4.15;;;9.00;99.90;;;;;;4986244;28;20041;-66
2022/12/20 02:18:05;;;;;;;6.38;4.35;;;9.10;99.90;;;;;;4986722;28;20066;-65
2022/12/20 02:20:51;;;;;;;6.00;3.80;;;9.10;99.90;;;;;;4985019;28;20086;-66
2022/12/20 02:23:35;;;;;;;5.50;4.10;;;9.00;99.90;;;;;;4979949;28;20054;-65
2022/12/20 02:26:45;;;;;;;6.05;3.95;;;9.00;99.90;;;;;;4969210;28;20375;-65
2022/12/20 02:29:37;;;;;;;7.28;3.13;;;9.10;99.90;;;;;;4967607;28;20055;-66
2022/12/20 02:32:27;;;;;;;5.90;3.50;;;9.10;99.90;;;;;;4968871;28;20059;-64
2022/12/20 02:34:54;;;;;;;6.10;3.80;;;9.10;99.90;;;;;;4968218;28;20046;-66
2022/12/20 02:37:20;;;;;;;6.03;3.60;;;9.10;99.90;;;;;;4968622;28;20050;-65
2022/12/20 02:39:46;;;;;;;7.53;3.45;;;9.20;99.90;;;;;;4968979;28;20046;-65
2022/12/20 02:42:17;;;;;;;6.22;4.10;;;9.30;99.90;;;;;;4968474;28;20469;-66
2022/12/20 02:47:58;;;;;;;7.03;3.38;;;9.10;99.90;;;;;;4969786;28;20105;-66
2022/12/20 02:50:35;;;;;;;4.68;3.15;;;9.20;99.90;;;;;;4968252;28;20097;-65
2022/12/20 02:53:01;;;;;;;7.18;3.78;;;9.60;99.90;;;;;;4968455;28;20541;-66
2022/12/20 02:55:45;;;;;;;4.88;3.08;;;9.30;99.90;;;;;;4968344;28;20053;-65
2022/12/20 02:58:40;;;;;;;5.80;3.63;;;9.40;99.90;;;;;;4968048;28;20050;-65
2022/12/20 03:01:12;;;;;;;7.13;3.55;;;9.30;99.90;;;;;;4969316;28;20117;-65
2022/12/20 03:03:38;;;;;;;5.40;3.65;;;9.60;99.90;;;;;;4969919;28;20074;-66
2022/12/20 03:06:04;;;;;;;6.78;2.90;;;9.80;99.90;;;;;;4976372;28;20061;-64
2022/12/20 03:08:30;;;;;;;6.38;3.97;;;9.40;99.90;;;;;;4969288;28;20035;-66
2022/12/20 03:10:56;;;;;;;5.72;3.35;;;9.40;99.90;;;;;;4968648;28;20041;-66
2022/12/20 03:13:23;;;;;;;5.05;3.47;;;9.30;99.90;;;;;;4968670;28;20047;-66
2022/12/20 03:15:49;;;;;;;5.47;3.80;;;9.40;99.90;;;;;;4968761;28;20058;-66
2022/12/20 03:18:15;;;;;;;5.50;3.70;;;9.40;99.90;;;;;;4968594;28;20401;-65
2022/12/20 03:20:42;;;;;;;7.07;3.80;;;9.30;99.90;;;;;;4968060;28;20042;-65
2022/12/20 03:23:08;;;;;;;4.97;3.50;;;9.20;99.90;;;;;;4967626;28;20054;-65
2022/12/20 03:25:33;;;;;;;5.55;3.28;;;9.20;99.90;;;;;;4968643;28;20047;-65
2022/12/20 03:27:59;;;;;;;5.43;3.50;;;9.30;99.90;;;;;;4969529;28;20047;-65
2022/12/20 03:30:25;;;;;;;7.57;4.35;;;9.30;99.90;;;;;;4967281;28;20050;-64
2022/12/20 03:32:50;;;;;;;6.13;3.33;;;9.20;99.90;;;;;;4968780;28;20046;-65
2022/12/20 03:35:16;;;;;;;6.18;4.20;;;9.50;99.90;;;;;;4967989;28;20501;-65
2022/12/20 03:37:42;;;;;;;6.28;4.10;;;8.80;99.90;;;;;;4967326;28;20054;-65
2022/12/20 03:40:08;;;;;;;5.93;4.47;;;8.70;99.90;;;;;;4967984;28;20050;-66
2022/12/20 03:42:35;;;;;;;11.15;5.13;;;8.70;99.90;;;;;;4968889;28;20049;-64
2022/12/20 03:45:01;;;;;;;8.98;4.55;;;9.00;99.90;;;;;;4969198;28;20049;-65
2022/12/20 03:47:26;;;;;;;6.85;3.72;;;9.00;99.90;;;;;;4968732;28;20508;-65
2022/12/20 03:49:52;;;;;;;7.10;4.80;;;9.10;99.90;;;;;;4967451;28;20082;-65
2022/12/20 03:52:18;;;;;;;7.30;3.85;;;9.00;99.90;;;;;;4968113;28;20145;-66
2022/12/20 03:54:43;;;;;;;7.07;4.45;;;9.00;99.90;;;;;;4968252;28;20038;-65
2022/12/20 03:57:09;;;;;;;7.03;5.32;;;8.70;99.90;;;;;;4968054;28;20495;-64
2022/12/20 03:59:35;;;;;;;5.50;4.13;;;8.50;99.90;;;;;;4968791;28;20154;-65
2022/12/20 04:02:01;;;;;;;4.68;3.40;;;8.90;99.90;;;;;;4968482;28;20042;-65
2022/12/20 04:04:27;;;;;;;6.03;4.15;;;8.70;99.90;;;;;;4971855;28;20046;-65
2022/12/20 04:06:52;;;;;;;7.57;4.63;;;9.00;99.90;;;;;;4975143;28;20038;-65
2022/12/20 04:09:18;;;;;;;6.28;4.32;;;8.50;99.90;;;;;;4970433;28;20049;-65
2022/12/20 04:11:44;;;;;;;6.90;4.90;;;9.10;99.90;;;;;;4972319;28;20133;-66
2022/12/20 04:14:09;;;;;;;4.75;2.83;;;8.90;99.90;;;;;;4972014;28;20046;-65
2022/12/20 04:16:35;;;;;;;5.75;4.60;;;9.00;99.90;;;;;;4972007;28;20483;-66
2022/12/20 04:19:01;;;;;;;6.07;3.22;;;9.00;99.90;;;;;;4972369;28;20051;-65
2022/12/20 04:21:29;;;;;;;6.03;3.90;;;8.70;99.90;;;;;;4971397;28;20545;-65
2022/12/20 04:23:55;;;;;;;5.85;4.72;;;8.90;99.90;;;;;;4972211;28;20038;-65
2022/12/20 04:26:21;;;;;;;6.63;3.70;;;9.10;99.90;;;;;;4972000;28;20141;-65
2022/12/20 04:28:47;;;;;;;4.93;3.65;;;8.90;99.90;;;;;;4954623;28;20130;-66
2022/12/20 04:31:13;;;;;;;5.38;3.97;;;9.20;99.90;;;;;;4972002;28;20394;-64
2022/12/20 04:33:39;;;;;;;9.68;4.55;;;9.20;99.90;;;;;;4972175;28;20061;-65
2022/12/20 04:36:05;;;;;;;5.88;4.35;;;8.70;99.90;;;;;;4969823;28;20062;-64
2022/12/20 04:38:31;;;;;;;5.07;3.65;;;9.10;99.90;;;;;;4971976;28;20046;-66
2022/12/20 04:40:56;;;;;;;5.55;3.75;;;8.90;99.90;;;;;;4971622;28;20525;-66
2022/12/20 04:43:23;;;;;;;4.57;3.40;;;8.90;99.90;;;;;;4971886;28;20065;-66
2022/12/20 04:45:51;;;;;;;4.80;2.95;;;9.00;99.90;;;;;;4971369;28;20093;-66
2022/12/20 04:48:18;;;;;;;6.57;3.80;;;9.00;99.90;;;;;;4971515;28;20046;-65
2022/12/20 04:50:50;;;;;;;6.40;3.72;;;9.20;99.90;;;;;;4970336;28;20042;-66
2022/12/20 04:56:01;;;;;;;5.75;4.68;;;9.10;99.90;;;;;;4972048;28;20055;-66
2022/12/20 04:58:27;;;;;;;5.57;4.10;;;8.90;99.90;;;;;;4971106;28;20122;-66
2022/12/20 05:00:53;;;;;;;6.75;4.50;;;9.30;99.90;;;;;;4971859;28;20409;-64
2022/12/20 05:03:21;;;;;;;5.70;4.32;;;9.20;99.90;;;;;;4971015;28;20102;-65
2022/12/20 05:05:47;;;;;;;6.25;4.50;;;8.90;99.90;;;;;;4979783;28;20488;-66
2022/12/20 05:08:13;;;;;;;5.95;3.58;;;9.40;99.90;;;;;;4971109;28;20046;-66
2022/12/20 05:10:39;;;;;;;6.93;3.95;;;9.40;99.90;;;;;;4971442;28;20054;-66
2022/12/20 05:13:05;;;;;;;7.50;4.35;;;9.30;99.90;;;;;;4971197;28;20375;-65
2022/12/20 05:15:30;;;;;;;5.70;4.43;;;9.00;99.90;;;;;;4971133;28;20043;-65
2022/12/20 05:17:58;;;;;;;6.40;3.45;;;9.50;99.90;;;;;;4971121;28;20105;-65
2022/12/20 05:20:27;;;;;;;6.53;4.40;;;9.50;99.90;;;;;;4969313;28;20498;-66
2022/12/20 05:28:25;;;;;;;5.60;3.47;;;9.10;99.90;;;;;;4970425;28;20082;-66
2022/12/20 05:30:51;;;;;;;8.10;3.58;;;9.60;99.90;;;;;;4970820;28;20101;-66
2022/12/20 05:33:16;;;;;;;4.45;3.10;;;9.70;99.90;;;;;;4971057;28;20453;-64
2022/12/20 05:35:42;;;;;;;5.75;3.58;;;9.30;99.90;;;;;;4970135;28;20058;-66
2022/12/20 05:38:08;;;;;;;7.60;4.10;;;9.60;99.90;;;;;;4971103;28;20047;-64
2022/12/20 05:40:34;;;;;;;6.10;3.75;;;9.30;99.90;;;;;;4980458;28;20073;-64
2022/12/20 05:43:00;;;;;;;4.75;3.25;;;9.50;99.90;;;;;;4990266;28;20062;-66
2022/12/20 05:45:26;;;;;;;5.70;3.83;;;9.30;99.90;;;;;;4989780;28;20057;-66
2022/12/20 05:47:52;;;;;;;6.70;4.30;;;9.40;99.90;;;;;;4990239;28;20137;-66
2022/12/20 05:50:17;;;;;;;5.10;3.22;;;9.80;99.90;;;;;;4989043;28;20444;-66
2022/12/20 05:52:43;;;;;;;5.57;3.55;;;9.70;99.90;;;;;;4989818;28;20056;-66
2022/12/20 05:55:09;;;;;;;5.80;3.15;;;9.50;99.90;;;;;;4990065;28;20094;-66
2022/12/20 05:57:35;;;;;;;4.35;2.63;;;9.80;99.90;;;;;;4978855;28;20050;-64
2022/12/20 06:00:01;;;;;;;6.32;3.40;;;9.90;99.90;;;;;;4970189;28;20133;-66
2022/12/20 06:02:27;;;;;;;5.10;3.55;;;9.90;99.90;;;;;;4970167;28;20043;-66
2022/12/20 06:04:52;;;;;;;5.47;2.83;;;10.00;99.90;;;;;;4976226;28;20045;-65
2022/12/20 06:07:18;;;;;;;4.68;3.15;;;9.90;99.90;;;;;;4973521;28;20046;-64
2022/12/20 06:09:44;;;;;;;5.57;3.90;;;10.00;99.90;;;;;;4969890;28;20050;-66
2022/12/20 06:12:09;;;;;;;4.70;3.03;;;10.10;99.90;;;;;;4970415;28;20077;-64
2022/12/20 06:14:35;;;;;;;4.93;3.45;;;9.80;99.90;;;;;;4970449;28;20067;-66
2022/12/20 06:17:01;;;;;;;5.38;3.92;;;9.90;99.90;;;;;;4969843;28;20043;-66
2022/12/20 06:19:27;;;;;;;4.97;3.20;;;9.90;99.90;;;;;;4969019;28;20045;-66
2022/12/20 06:21:53;;;;;;;5.07;3.38;;;10.10;99.90;;;;;;4969925;28;20043;-66
2022/12/20 06:24:18;;;;;;;5.28;3.80;;;10.10;99.90;;;;;;4969851;28;20039;-66
2022/12/20 06:26:44;;;;;;;5.55;3.17;;;9.90;99.90;;;;;;4969228;28;20074;-65
2022/12/20 06:29:13;;;;;;;4.82;3.40;;;9.90;99.90;;;;;;4968786;28;20101;-67
2022/12/20 06:31:39;;;;;;;3.92;2.35;;;9.90;99.90;;;;;;4969894;28;20130;-66
2022/12/20 06:34:05;;;;;;;5.10;2.38;;;10.00;99.90;;;;;;4969585;28;20126;-66
2022/12/20 06:36:31;;;;;;;5.57;3.55;;;10.20;99.90;;;;;;4969090;28;20785;-66
2022/12/20 06:38:56;;;;;;;5.78;2.83;;;10.10;99.90;;;;;;4969492;28;20094;-67
2022/12/20 06:41:22;;;;;;;6.45;3.22;;;10.00;99.90;;;;;;4969267;28;20070;-66
2022/12/20 06:43:48;;;;;;;5.57;3.35;;;10.00;99.90;;;;;;4969490;28;20474;-66
2022/12/20 06:46:13;;;;;;;5.63;3.28;;;10.00;99.90;;;;;;4969212;28;20047;-65
2022/12/20 06:48:39;;;;;;;3.95;2.40;;;10.30;99.90;;;;;;4969768;28;20117;-67
2022/12/20 06:51:05;;;;;;;4.65;3.10;;;10.20;99.90;;;;;;4968220;28;20054;-66
2022/12/20 06:53:31;;;;;;;4.32;2.22;;;10.30;99.90;;;;;;4969299;28;20050;-66
2022/12/20 06:55:56;;;;;;;5.03;2.58;;;10.30;99.90;;;;;;4968988;28;20094;-67
2022/12/20 06:58:22;;;;;;;5.72;3.50;;;10.30;99.90;;;;;;4969502;28;20134;-67
2022/12/20 07:00:48;;;;;;;4.82;3.03;;;10.10;99.90;;;;;;4969134;28;20046;-66
2022/12/20 07:03:14;;;;;;;5.80;3.20;;;10.30;99.90;;;;;;4968953;28;20047;-64
2022/12/20 07:05:40;;;;;;;5.13;3.65;;;10.20;99.90;;;;;;4979579;28;20049;-64
2022/12/20 07:08:07;;;;;;;5.00;3.38;;;10.20;99.90;;;;;;4968787;28;20038;-67
2022/12/20 07:10:34;;;;;;;5.85;3.75;;;10.30;99.90;;;;;;4968985;28;20050;-65
2022/12/20 07:13:00;;;;;;;5.50;3.75;;;10.30;99.90;;;;;;4967812;28;20054;-66
2022/12/20 07:15:25;;;;;;;7.50;4.40;;;9.90;99.90;;;;;;4968615;28;20047;-66
2022/12/20 07:17:51;;;;;;;12.02;4.70;;;10.10;99.90;;;;;;4968927;28;20043;-64
2022/12/20 07:20:17;;;;;;;5.30;3.58;;;10.00;99.90;;;;;;4968487;28;20055;-66
2022/12/20 07:22:46;;;;;;;5.70;3.40;;;9.60;99.90;;;;;;4969307;28;20047;-66
2022/12/20 07:25:11;;;;;;;5.50;4.43;;;9.50;99.90;;;;;;4969066;28;20126;-64
2022/12/20 07:27:37;;;;;;;8.30;4.90;;;9.80;99.90;;;;;;4969091;28;20679;-68
2022/12/20 07:30:04;;;;;;;6.55;4.38;;;9.30;99.90;;;;;;4968365;28;20438;-68
2022/12/20 07:32:30;;;;;;;7.47;5.18;;;9.50;99.90;;;;;;4967140;28;20051;-70
2022/12/20 07:34:55;;;;;;;5.88;4.55;;;9.50;99.90;;;;;;4968175;28;20050;-67
2022/12/20 07:37:21;;;;;;;8.25;5.13;;;9.40;99.90;;;;;;4968691;28;20046;-62
2022/12/20 07:39:47;;;;;;;7.60;4.30;;;9.30;99.90;;;;;;4966868;28;20101;-67
2022/12/20 07:42:12;;;;;;;6.90;3.85;;;9.30;99.90;;;;;;4968971;28;20393;-68
2022/12/20 07:44:38;;;;;;;7.13;6.00;;;9.60;99.90;;;;;;4974474;28;20059;-69
2022/12/20 07:47:04;;;;;;;7.82;5.57;;;9.40;99.90;;;;;;4974862;28;20501;-66
2022/12/20 07:49:30;;;;;;;8.85;5.50;;;9.40;99.90;;;;;;4974133;28;20035;-69
2022/12/20 07:51:58;;;;;;;6.25;5.00;;;9.30;99.90;;;;;;4974650;28;20113;-66
2022/12/20 07:54:30;;;;;;;8.43;6.78;;;9.60;99.90;;;;;;4974529;28;20074;-68
2022/12/20 07:56:59;;;;;;;7.32;5.82;;;9.60;99.90;;;;;;4973112;28;20145;-65
2022/12/20 07:59:32;;;;;;;8.15;6.10;;;9.40;99.90;;;;;;4975024;28;20050;-67
2022/12/20 08:01:58;;;;;;;9.60;6.40;;;9.60;99.90;;;;;;4974539;28;20074;-68
2022/12/20 08:04:27;;;;;;;6.38;4.47;;;9.20;99.90;;;;;;4977240;28;20081;-67
2022/12/20 08:06:55;;;;;;;9.98;6.07;;;9.40;99.90;;;;;;4980237;28;20121;-68
2022/12/20 08:09:22;;;;;;;10.98;7.05;;;9.30;99.90;;;;;;4973798;28;20085;-67
2022/12/20 08:11:49;;;;;;;6.90;4.93;;;9.70;99.90;;;;;;4975011;28;20074;-67
2022/12/20 08:14:17;;;;;;;7.68;5.90;;;9.70;99.90;;;;;;4974989;28;20367;-67
2022/12/20 08:16:43;;;;;;;8.55;6.45;;;9.40;99.90;;;;;;4973272;28;20753;-65
2022/12/20 08:19:09;;;;;;;7.47;4.25;;;9.50;99.90;;;;;;4973912;28;20078;-68
2022/12/20 08:21:35;;;;;;;8.35;6.30;;;9.40;99.90;;;;;;4974360;28;20050;-68
2022/12/20 08:24:01;;;;;;;9.98;6.63;;;9.80;99.90;;;;;;4974546;28;20105;-67
2022/12/20 08:26:27;;;;;;;8.95;5.88;;;9.60;99.90;;;;;;4974106;28;20043;-67
2022/12/20 08:28:55;;;;;;;8.02;4.82;;;9.40;99.90;;;;;;4974516;28;20122;-67
2022/12/20 08:31:21;;;;;;;6.15;5.13;;;9.40;99.90;;;;;;4974326;28;20046;-68
2022/12/20 08:33:47;;;;;;;8.32;6.45;;;9.70;99.90;;;;;;4974076;28;20035;-68
2022/12/20 08:36:13;;;;;;;9.27;5.65;;;9.70;99.90;;;;;;4973612;28;20093;-68
2022/12/20 08:38:39;;;;;;;8.55;5.75;;;9.50;99.90;;;;;;4972964;28;20042;-67
2022/12/20 08:41:11;;;;;;;8.60;5.60;;;9.90;99.90;;;;;;4973906;28;20493;-67
2022/12/20 08:43:37;;;;;;;5.95;3.78;;;9.60;99.90;;;;;;4973927;28;20406;-67
2022/12/20 08:46:03;;;;;;;8.98;5.65;;;9.60;99.90;;;;;;4974004;28;20434;-67
2022/12/20 08:48:29;;;;;;;5.97;5.10;;;9.80;99.90;;;;;;4973503;28;20162;-68
2022/12/20 08:51:00;;;;;;;7.47;5.15;;;9.60;99.90;;;;;;4973303;28;20050;-64
2022/12/20 08:53:27;;;;;;;7.32;4.18;;;9.80;99.90;;;;;;4974262;28;20061;-70
2022/12/20 08:55:53;;;;;;;6.50;4.90;;;9.70;99.90;;;;;;4970045;28;20522;-65
2022/12/20 08:58:20;;;;;;;6.05;3.55;;;9.80;99.90;;;;;;4971530;28;20047;-69
2022/12/20 09:00:46;;;;;;;7.68;5.03;;;10.10;99.90;;;;;;4971388;28;20174;-67
2022/12/20 09:03:12;;;;;;;8.52;4.75;;;10.10;99.90;;;;;;4971448;28;20059;-68
2022/12/20 09:05:46;;;;;;;8.23;4.43;;;10.10;99.90;;;;;;4981521;28;20046;-68
2022/12/20 09:08:13;;;;;;;9.15;3.88;;;9.90;99.90;;;;;;4969666;28;20051;-69
2022/12/20 09:10:39;;;;;;;6.68;3.90;;;10.00;99.90;;;;;;4971282;28;20078;-69
2022/12/20 09:13:04;;;;;;;5.97;3.72;;;9.90;99.90;;;;;;4971008;28;20168;-69
2022/12/20 09:15:33;;;;;;;7.93;3.05;;;9.90;99.90;;;;;;4970880;28;20043;-68
2022/12/20 09:17:59;;;;;;;8.93;4.00;;;10.20;99.90;;;;;;4970917;28;20050;-66
2022/12/20 09:20:24;;;;;;;7.20;3.60;;;10.30;99.90;;;;;;4970352;28;20100;-68
2022/12/20 09:22:50;;;;;;;8.15;3.85;;;10.00;99.90;;;;;;4970937;28;20122;-68
2022/12/20 09:25:16;;;;;;;7.68;3.80;;;10.20;99.90;;;;;;4970597;28;20042;-67
2022/12/20 09:27:42;;;;;;;5.53;4.05;;;9.80;99.90;;;;;;4969011;28;20043;-70
2022/12/20 09:30:08;;;;;;;5.35;3.00;;;10.10;99.90;;;;;;4970277;28;20046;-64
2022/12/20 09:32:34;;;;;;;6.38;3.40;;;10.20;99.90;;;;;;4971019;28;20137;-67
2022/12/20 09:34:59;;;;;;;5.57;3.15;;;10.30;99.90;;;;;;4969692;28;20082;-65
2022/12/20 09:37:28;;;;;;;4.47;2.85;;;10.20;99.90;;;;;;4970090;28;20039;-69
2022/12/20 09:39:53;;;;;;;4.18;2.22;;;10.50;99.90;;;;;;4970287;28;20054;-67
2022/12/20 09:42:23;;;;;;;5.65;2.72;;;10.40;99.90;;;;;;4970289;28;20047;-66
2022/12/20 09:44:49;;;;;;;4.00;2.35;;;10.30;99.90;;;;;;4970618;28;20070;-67
2022/12/20 09:47:19;;;;;;;4.78;2.92;;;10.50;99.90;;;;;;4969818;28;20053;-67
2022/12/20 09:49:50;;;;;;;5.47;2.60;;;10.50;99.90;;;;;;4969190;28;20041;-67
2022/12/20 09:52:24;;;;;;;5.70;2.72;;;10.50;99.90;;;;;;4970391;28;20086;-68
2022/12/20 09:55:39;;;;;;;3.58;1.77;;;10.40;99.90;;;;;;4967089;28;20054;-67
2022/12/20 09:58:14;;;;;;;4.32;2.53;;;10.60;99.90;;;;;;4995913;28;20072;-66
2022/12/20 10:00:45;;;;;;;5.80;3.35;;;10.60;99.90;;;;;;4996778;28;20053;-67
2022/12/20 10:03:24;;;;;;;7.32;3.67;;;10.50;99.90;;;;;;4976613;28;20051;-66
2022/12/20 10:05:53;;;;;;;5.35;2.90;;;10.40;99.90;;;;;;4978813;28;20143;-67
2022/12/20 10:08:45;;;;;;;5.43;3.22;;;10.50;99.90;;;;;;4969755;28;20083;-65
2022/12/20 10:11:28;;;;;;;6.32;2.88;;;10.50;99.90;;;;;;4977109;28;20038;-67
2022/12/20 10:14:11;;;;;;;5.82;3.70;;;10.50;99.90;;;;;;4980902;28;20129;-64
2022/12/20 10:16:43;;;;;;;5.95;3.22;;;10.60;99.90;;;;;;4987490;28;20133;-66
2022/12/20 10:19:36;;;;;;;5.97;2.88;;;10.50;99.90;;;;;;4988040;28;20054;-66
2022/12/20 10:22:02;;;;;;;5.50;3.42;;;10.40;99.90;;;;;;4989326;28;20043;-67
2022/12/20 10:24:33;;;;;;;5.00;3.08;;;10.30;99.90;;;;;;4987054;28;20057;-66
2022/12/20 10:27:27;;;;;;;5.20;2.78;;;10.40;99.90;;;;;;4974233;28;20138;-66
2022/12/20 10:29:52;;;;;;;6.00;2.95;;;10.40;99.90;;;;;;4967731;28;20062;-70
2022/12/20 10:32:23;;;;;;;5.05;3.38;;;10.40;99.90;;;;;;4969266;28;20394;-68
2022/12/20 10:35:14;;;;;;;4.70;3.10;;;10.50;99.90;;;;;;4968622;28;20053;-68
2022/12/20 10:38:00;;;;;;;5.22;2.80;;;10.30;99.90;;;;;;4967984;28;20501;-66
2022/12/20 10:40:40;;;;;;;3.92;1.92;;;10.40;99.90;;;;;;4969715;28;20386;-69
2022/12/20 10:43:19;;;;;;;4.82;2.47;;;10.20;99.90;;;;;;4969127;28;20058;-67
2022/12/20 10:45:59;;;;;;;5.50;3.33;;;10.30;99.90;;;;;;4969704;28;20126;-66
2022/12/20 10:48:30;;;;;;;5.75;2.97;;;10.20;99.90;;;;;;4969195;28;20043;-65
2022/12/20 10:51:00;;;;;;;5.45;3.63;;;10.00;99.90;;;;;;4969003;28;20066;-68
2022/12/20 10:53:27;;;;;;;6.85;3.60;;;10.20;99.90;;;;;;4969085;28;20047;-66
2022/12/20 10:56:07;;;;;;;6.28;3.53;;;9.90;99.90;;;;;;4969283;28;20049;-67
2022/12/20 10:58:35;;;;;;;5.43;3.22;;;10.20;99.90;;;;;;4969487;28;20050;-67
2022/12/20 11:01:09;;;;;;;5.75;3.78;;;10.20;99.90;;;;;;4969055;28;20398;-67
2022/12/20 11:03:52;;;;;;;5.45;3.08;;;10.20;99.90;;;;;;4969170;28;20517;-67
2022/12/20 11:06:20;;;;;;;7.35;3.40;;;10.20;99.90;;;;;;4977471;28;20039;-66
2022/12/20 11:08:47;;;;;;;5.65;3.80;;;10.00;99.90;;;;;;4969347;28;20129;-65
2022/12/20 11:11:18;;;;;;;5.85;3.10;;;10.20;99.90;;;;;;4969159;28;20043;-67
2022/12/20 11:13:45;;;;;;;6.93;3.33;;;9.90;99.90;;;;;;4968638;28;20054;-66
2022/12/20 11:16:33;;;;;;;5.47;4.20;;;9.90;99.90;;;;;;4968909;28;20085;-67
2022/12/20 11:19:05;;;;;;;7.22;3.75;;;9.90;99.90;;;;;;4966610;28;20089;-68
2022/12/20 11:21:53;;;;;;;6.50;3.97;;;10.20;99.90;;;;;;4969502;28;20058;-68
2022/12/20 11:24:31;;;;;;;5.45;3.67;;;9.90;99.90;;;;;;4986882;28;20401;-67
2022/12/20 11:27:30;;;;;;;6.43;4.20;;;9.90;99.90;;;;;;4987832;28;20134;-65
2022/12/20 11:30:14;;;;;;;9.73;4.03;;;10.20;99.90;;;;;;4987934;28;20078;-67
2022/12/20 11:33:04;;;;;;;6.00;4.35;;;10.10;99.90;;;;;;4985185;28;20093;-66
2022/12/20 11:35:44;;;;;;;6.55;3.00;;;10.20;99.90;;;;;;4986457;28;20046;-67
2022/12/20 11:38:29;;;;;;;7.00;4.15;;;9.80;99.90;;;;;;4975691;28;20113;-65
2022/12/20 11:41:16;;;;;;;5.45;3.80;;;9.90;99.90;;;;;;4968006;28;20491;-67
2022/12/20 11:43:59;;;;;;;6.22;3.90;;;10.20;99.90;;;;;;4967958;28;20705;-69
2022/12/20 11:46:52;;;;;;;4.45;3.15;;;9.80;99.90;;;;;;4968323;28;20050;-64
2022/12/20 11:49:28;;;;;;;6.88;4.45;;;10.30;99.90;;;;;;4967666;28;20055;-67
2022/12/20 11:52:28;;;;;;;5.00;4.15;;;10.00;99.90;;;;;;4970901;28;20382;-67
2022/12/20 11:55:21;;;;;;;6.05;4.28;;;10.20;99.90;;;;;;4978460;28;20058;-67
2022/12/20 11:58:04;;;;;;;5.40;3.63;;;9.80;99.90;;;;;;4971573;28;20077;-66
2022/12/20 12:00:34;;;;;;;4.70;2.70;;;10.20;99.90;;;;;;4968476;28;20051;-67
2022/12/20 12:03:20;;;;;;;7.55;4.13;;;10.00;99.90;;;;;;4968547;28;20116;-64
2022/12/20 12:05:53;;;;;;;3.95;2.72;;;10.20;99.90;;;;;;4976408;28;20042;-67
2022/12/20 12:08:28;;;;;;;4.45;3.47;;;9.80;99.90;;;;;;4987596;28;20413;-66
2022/12/20 12:11:00;;;;;;;5.30;2.97;;;9.80;99.90;;;;;;4988187;28;20043;-67
2022/12/20 12:13:29;;;;;;;5.32;2.80;;;10.00;99.90;;;;;;4987835;28;20058;-65
2022/12/20 12:16:17;;;;;;;5.38;3.40;;;9.80;99.90;;;;;;4988063;28;20464;-67
2022/12/20 12:18:44;;;;;;;6.72;3.67;;;10.10;99.90;;;;;;4986645;28;20057;-68
2022/12/20 12:21:09;;;;;;;6.22;3.50;;;10.00;99.90;;;;;;4987368;28;20045;-68
2022/12/20 12:24:05;;;;;;;6.05;3.60;;;10.30;99.90;;;;;;4987284;28;20130;-67
2022/12/20 12:26:39;;;;;;;6.07;3.72;;;9.90;99.90;;;;;;4978149;28;20038;-68
2022/12/20 12:29:08;;;;;;;7.47;3.88;;;10.30;99.90;;;;;;4976223;28;20046;-68
2022/12/20 12:31:34;;;;;;;7.68;3.78;;;10.00;99.90;;;;;;4991305;28;20050;-66
2022/12/20 12:34:09;;;;;;;6.13;3.90;;;10.20;99.90;;;;;;4991106;28;20088;-68
2022/12/20 12:37:02;;;;;;;6.35;3.70;;;9.80;99.90;;;;;;4991490;28;20141;-67
2022/12/20 12:40:05;;;;;;;5.40;3.40;;;9.80;99.90;;;;;;4990806;28;20073;-67
2022/12/20 12:43:08;;;;;;;5.07;3.63;;;10.40;99.90;;;;;;4991116;28;20090;-67
2022/12/20 12:45:57;;;;;;;4.97;3.33;;;10.30;99.90;;;;;;4990862;28;20046;-67
2022/12/20 12:48:38;;;;;;;6.47;4.00;;;10.00;99.90;;;;;;4989917;28;20140;-67
2022/12/20 12:51:05;;;;;;;4.60;2.80;;;9.80;99.90;;;;;;4989030;28;20105;-68
2022/12/20 12:53:34;;;;;;;4.57;2.63;;;10.30;99.90;;;;;;4991314;28;20133;-64
2022/12/20 12:56:26;;;;;;;6.05;3.80;;;10.30;99.90;;;;;;4990619;28;20101;-67
2022/12/20 12:59:14;;;;;;;5.63;4.00;;;10.10;99.90;;;;;;4990225;28;20057;-67
2022/12/20 13:02:13;;;;;;;7.60;4.13;;;10.00;99.90;;;;;;4990007;28;20046;-67
2022/12/20 13:04:55;;;;;;;4.43;3.25;;;9.80;99.90;;;;;;4983560;28;20053;-67
2022/12/20 13:07:43;;;;;;;4.28;2.80;;;9.80;99.90;;;;;;4974863;28;20097;-67
2022/12/20 13:10:15;;;;;;;5.78;4.25;;;9.80;99.90;;;;;;4972396;28;20567;-67
2022/12/20 13:12:40;;;;;;;6.35;4.10;;;9.60;99.90;;;;;;4971560;28;20067;-64
2022/12/20 13:15:18;;;;;;;4.55;3.33;;;10.20;99.90;;;;;;4969757;28;20122;-64
2022/12/20 13:17:47;;;;;;;7.38;4.70;;;9.80;99.90;;;;;;4970751;28;20051;-67
2022/12/20 13:20:23;;;;;;;6.00;4.60;;;9.90;99.90;;;;;;4970489;28;20054;-68
2022/12/20 13:23:16;;;;;;;6.63;3.25;;;10.20;99.90;;;;;;4970926;28;20407;-68